ADDS METAR Data INFO
IDs: Format: Raw Decoded Include TAF

Data at: 2008 UTC 19 Oct 2017

KUNI 191955Z AUTO 22007KT 10SM CLR 21/08 A3020 RMK AO2 T02140078
KUNI 191935Z AUTO 21006KT 10SM CLR 22/08 A3020 RMK AO2 T02160079
KUNI 191915Z AUTO 20006KT 10SM CLR 21/08 A3021 RMK AO2 T02130076
KUNI 191855Z AUTO 23012G15KT 10SM CLR 21/08 A3022 RMK AO2 T02140079
KUNI 191835Z AUTO 21008KT 10SM CLR 21/08 A3022 RMK AO2 T02130081
KUNI 191815Z AUTO 21004KT 10SM CLR 21/08 A3023 RMK AO2 T02110082
KUNI 191755Z AUTO 21004G09KT 10SM CLR 21/09 A3023 RMK AO2 T02060086 10207 20025
KUNI 191735Z AUTO 25007KT 10SM CLR 21/09 A3024 RMK AO2 T02050086
KUNI 191715Z AUTO 22006G16KT 10SM CLR 20/09 A3025 RMK AO2 T02010085
KUNI 191655Z AUTO 24009G18KT 7SM CLR 20/09 A3026 RMK AO2 T01980089
KUNI 191635Z AUTO 23007KT 7SM CLR 19/09 A3026 RMK AO2 T01910085
KUNI 191615Z AUTO 22007G14KT 190V250 7SM CLR 19/09 A3027 RMK AO2 T01890090
KUNI 191555Z AUTO 24008KT 7SM CLR 18/09 A3027 RMK AO2 T01790087
KUNI 191535Z AUTO 24006KT 7SM CLR 17/09 A3027 RMK AO2 T01710090
KUNI 191515Z AUTO 23005KT 7SM CLR 16/09 A3027 RMK AO2 T01640092
KUNI 191455Z AUTO 20003KT 10SM CLR 15/09 A3028 RMK AO2 T01470088
KUNI 191435Z AUTO 24003KT 10SM CLR 14/09 A3028 RMK AO2 T01360087
KUNI 191415Z AUTO 19004KT 10SM CLR 12/09 A3027 RMK AO2 T01180085
KUNI 191355Z AUTO 20004KT 10SM CLR 11/08 A3028 RMK AO2 T01100082
KUNI 191335Z AUTO 00000KT 10SM CLR 10/08 A3027 RMK AO2 T01000080
KUNI 191315Z AUTO 20003KT 10SM CLR 09/08 A3027 RMK AO2 T00910083
KUNI 191255Z AUTO 20004KT 10SM CLR 08/08 A3026 RMK AO2 T00780078
KUNI 191235Z AUTO 00000KT 10SM CLR 05/05 A3025 RMK AO2 T00510051
KUNI 191215Z AUTO 00000KT 10SM CLR 03/03 A3025 RMK AO2 T00310031
KUNI 191155Z AUTO 00000KT 10SM CLR 03/03 A3025 RMK AO2 T00260026 10042 20021
KUNI 191135Z AUTO 27003KT 10SM CLR 03/03 A3025 RMK AO2 T00270027
KUNI 191115Z AUTO 00000KT 10SM CLR 03/03 A3025 RMK AO2 T00260026
KUNI 191055Z AUTO 00000KT 10SM CLR 03/03 A3025 RMK AO2 T00260026
KUNI 191035Z AUTO 00000KT 10SM CLR 03/03 A3025 RMK AO2 T00250025
KUNI 191015Z AUTO 00000KT 10SM CLR 03/03 A3024 RMK AO2 T00300030
KUNI 190955Z AUTO 00000KT 10SM CLR 03/03 A3024 RMK AO2 T00300030
KUNI 190935Z AUTO 00000KT 10SM CLR 03/03 A3023 RMK AO2 T00310031
KUNI 190915Z AUTO 00000KT 10SM CLR 03/03 A3023 RMK AO2 T00310031
KUNI 190855Z AUTO 00000KT 10SM CLR 04/04 A3022 RMK AO2 T00350035
KUNI 190835Z AUTO 00000KT 10SM CLR 04/04 A3022 RMK AO2 T00350035
KUNI 190815Z AUTO 00000KT 10SM CLR 03/03 A3022 RMK AO2 T00340034
KUNI 190755Z AUTO 00000KT 10SM CLR 04/04 A3022 RMK AO2 T00350035
KUNI 190735Z AUTO 00000KT 10SM CLR 03/03 A3022 RMK AO2 T00310031
KUNI 190715Z AUTO 00000KT 10SM CLR 04/04 A3023 RMK AO2 T00390039
KUNI 190655Z AUTO 00000KT 10SM CLR 04/04 A3023 RMK AO2 T00410041
KUNI 190635Z AUTO 00000KT 10SM CLR 04/04 A3023 RMK AO2 T00390039
KUNI 190615Z AUTO 00000KT 10SM CLR 04/04 A3023 RMK AO2 T00420042
KUNI 190555Z AUTO 00000KT 10SM CLR 04/04 A3023 RMK AO2 T00400040 10111 20040
KUNI 190535Z AUTO 00000KT 10SM CLR 05/05 A3022 RMK AO2 T00450045
KUNI 190515Z AUTO 00000KT 10SM CLR 05/05 A3022 RMK AO2 T00500050
KUNI 190455Z AUTO 00000KT 10SM CLR 05/05 A3022 RMK AO2 T00530053
KUNI 190435Z AUTO 00000KT 10SM CLR 05/05 A3022 RMK AO2 T00540054
KUNI 190415Z AUTO 00000KT 10SM CLR 05/05 A3022 RMK AO2 T00520052
KUNI 190355Z AUTO 00000KT 10SM CLR 05/05 A3022 RMK AO2 T00530053 402130014
KUNI 190335Z AUTO 00000KT 10SM CLR 06/06 A3022 RMK AO2 T00550055
KUNI 190315Z AUTO 00000KT 10SM CLR 07/07 A3022 RMK AO2 T00650065
KUNI 190255Z AUTO 00000KT 10SM CLR 06/06 A3022 RMK AO2 T00600059
KUNI 190235Z AUTO 00000KT 10SM CLR 06/05 A3022 RMK AO2 T00620049
KUNI 190215Z AUTO 00000KT 10SM CLR 07/05 A3022 RMK AO2 T00720053
KUNI 190155Z AUTO 00000KT 10SM CLR 08/06 A3022 RMK AO2 T00800060
KUNI 190135Z AUTO 00000KT 10SM CLR 08/06 A3023 RMK AO2 T00810059
KUNI 190115Z AUTO 00000KT 10SM CLR 09/06 A3023 RMK AO2 T00880064
KUNI 190055Z AUTO 00000KT 10SM CLR 09/07 A3023 RMK AO2 T00880066
KUNI 190035Z AUTO 00000KT 10SM CLR 10/06 A3023 RMK AO2 T00970061
KUNI 190015Z AUTO 00000KT 10SM CLR 11/06 A3023 RMK AO2 T01060060
KUNI 182355Z AUTO 00000KT 10SM CLR 11/06 A3023 RMK AO2 T01120058 10213 20112
KUNI 182335Z AUTO 00000KT 10SM CLR 12/06 A3023 RMK AO2 T01210058
KUNI 182315Z AUTO 00000KT 10SM CLR 14/06 A3023 RMK AO2 T01350062
KUNI 182255Z AUTO 00000KT 10SM CLR 15/06 A3022 RMK AO2 T01490055
KUNI 182235Z AUTO 00000KT 10SM CLR 17/05 A3022 RMK AO2 T01700052
KUNI 182215Z AUTO 19003KT 10SM CLR 19/04 A3022 RMK AO2 T01940036
KUNI 182155Z AUTO 18004KT 10SM CLR 20/04 A3023 RMK AO2 T02040037
KUNI 182135Z AUTO 18004KT 10SM CLR 21/04 A3023 RMK AO2 T02050039
KUNI 182115Z AUTO 18004KT 10SM CLR 21/03 A3024 RMK AO2 T02080034
KUNI 182055Z AUTO 23005KT 10SM CLR 21/03 A3023 RMK AO2 T02090027
KUNI 182035Z AUTO 22005KT 10SM CLR 21/03 A3023 RMK AO2 T02100027
KUNI 182015Z AUTO 00000KT 10SM CLR 21/03 A3024 RMK AO2 T02110027
KUNI 181955Z AUTO 22005KT 10SM CLR 21/04 A3024 RMK AO2 T02110037
KUNI 181935Z AUTO 20006KT 10SM CLR 21/03 A3025 RMK AO2 T02100030
KUNI 181915Z AUTO 18003KT 10SM CLR 21/03 A3026 RMK AO2 T02090030
KUNI 181855Z AUTO 18005KT 10SM CLR 21/02 A3027 RMK AO2 T02060021
KUNI 181835Z AUTO 14003KT 10SM CLR 20/03 A3027 RMK AO2 T02020027
KUNI 181815Z AUTO 16006KT 10SM CLR 20/03 A3029 RMK AO2 T01980032
KUNI 181755Z AUTO 17004KT 10SM CLR 19/04 A3029 RMK AO2 T01940035 10195 20014
KUNI 181735Z AUTO 16004KT 10SM CLR 19/05 A3031 RMK AO2 T01900045
KUNI 181720Z AUTO 19004KT 10SM CLR 19/05 A3032 RMK AO2 T01860046
KUNI 181655Z AUTO 17004KT 10SM CLR 18/05 A3033 RMK AO2 T01810053
KUNI 181635Z AUTO 19005KT 10SM CLR 18/05 A3034 RMK AO2 T01750053
KUNI 181615Z AUTO 15005KT 10SM CLR 17/05 A3035 RMK AO2 T01710052
KUNI 181555Z AUTO 14004KT 10SM CLR 16/06 A3035 RMK AO2 T01640060
KUNI 181535Z AUTO 00000KT 10SM CLR 16/06 A3036 RMK AO2 T01550059
KUNI 181515Z AUTO 00000KT 7SM CLR 14/07 A3036 RMK AO2 T01440069
KUNI 181455Z AUTO 00000KT 10SM CLR 13/07 A3035 RMK AO2 T01330072
KUNI 181440Z AUTO 00000KT 10SM CLR 11/08 A3036 RMK AO2 T01130084
KUNI 181415Z AUTO 00000KT 10SM CLR 09/08 A3035 RMK AO2 T00930076
KUNI 181355Z AUTO 00000KT 10SM CLR 08/07 A3036 RMK AO2 T00780068
KUNI 181340Z AUTO 00000KT 10SM CLR 07/07 A3036 RMK AO2 T00680066
KUNI 181315Z AUTO 00000KT 10SM CLR 05/05 A3036 RMK AO2 T00470047
KUNI 181255Z AUTO 00000KT 10SM CLR 03/03 A3035 RMK AO2 T00340034
KUNI 181235Z AUTO 00000KT 10SM CLR 02/02 A3035 RMK AO2 T00230023
KUNI 181215Z AUTO 00000KT 10SM CLR 02/02 A3035 RMK AO2 T00170017
KUNI 181155Z AUTO 00000KT 10SM CLR 02/02 A3034 RMK AO2 T00180018 10042 20015
KUNI 181135Z AUTO 00000KT 10SM CLR 02/02 A3034 RMK AO2 T00160016
KUNI 181115Z AUTO 00000KT 10SM CLR 02/02 A3034 RMK AO2 T00190019
KUNI 181055Z AUTO 00000KT 10SM CLR 02/02 A3033 RMK AO2 T00200020
KUNI 181035Z AUTO 00000KT 10SM CLR 02/02 A3033 RMK AO2 T00170017
KUNI 181015Z AUTO 00000KT 10SM CLR 02/02 A3033 RMK AO2 T00200020
KUNI 180955Z AUTO 00000KT 10SM CLR 02/02 A3032 RMK AO2 T00220022
KUNI 180935Z AUTO 00000KT 10SM CLR 02/02 A3032 RMK AO2 T00240024
KUNI 180915Z AUTO 00000KT 10SM CLR 02/02 A3031 RMK AO2 T00220022
KUNI 180855Z AUTO 00000KT 10SM CLR 02/02 A3031 RMK AO2 T00240024
KUNI 180835Z AUTO 00000KT 10SM CLR 03/03 A3031 RMK AO2 T00260026
KUNI 180815Z AUTO 00000KT 10SM CLR 03/03 A3031 RMK AO2 T00300030